Time;durP1;ratioP1;P1;durP2;ratioP2;P2;SDS_P1;SDS_P2;PMS_P1;PMS_P2;Temp;Humidity;BMP_temperature;BMP_pressure;BME280_temperature;BME280_humidity;BME280_pressure;Samples;Min_cycle;Max_cycle;Signal;HPM_P1;HPM_P2
2023/09/19 00:00:31;;;;;;;;;;;;;;;;;;;;;
2023/09/19 00:03:33;;;;;;;4.90;2.40;;;19.20;98.00;;;;;;6203027;23;20400;-85
2023/09/19 00:07:04;;;;;;;1.93;1.67;;;19.20;98.20;;;;;;6222509;22;20440;-85
2023/09/19 00:10:19;;;;;;;3.23;1.20;;;19.30;98.20;;;;;;6227647;23;20491;-85
2023/09/19 00:13:21;;;;;;;1.97;1.10;;;19.40;98.00;;;;;;6230048;23;20469;-85
2023/09/19 00:16:51;;;;;;;2.20;1.20;;;19.40;97.70;;;;;;6245820;23;20897;-83
2023/09/19 00:20:13;;;;;;;3.87;1.40;;;19.40;97.70;;;;;;6232009;23;20431;-85
2023/09/19 00:23:10;;;;;;;2.47;1.27;;;19.20;98.10;;;;;;6231851;23;20408;-83
2023/09/19 00:26:12;;;;;;;1.73;1.63;;;19.10;98.10;;;;;;6229329;23;20789;-84
2023/09/19 00:30:14;;;;;;;;;;;;;;;;;;;;;
2023/09/19 00:33:19;;;;;;;5.13;1.90;;;19.20;97.80;;;;;;6248457;23;20479;-85
2023/09/19 00:39:45;;;;;;;2.70;1.60;;;18.80;98.50;;;;;;6257067;23;20416;-83
2023/09/19 00:42:59;;;;;;;3.93;1.50;;;18.80;98.80;;;;;;6236997;23;20444;-85
2023/09/19 00:46:03;;;;;;;6.83;2.73;;;18.80;98.50;;;;;;6226335;23;20447;-85
2023/09/19 00:49:08;;;;;;;3.47;1.40;;;18.80;98.60;;;;;;6237784;23;20408;-85
2023/09/19 00:55:32;;;;;;;4.17;2.10;;;19.00;98.20;;;;;;6247132;23;20448;-85
2023/09/19 01:01:46;;;;;;;3.93;3.10;;;19.00;98.30;;;;;;6208278;23;20498;-88
2023/09/19 01:04:37;;;;;;;2.17;1.27;;;19.10;98.30;;;;;;6216809;23;20422;-85
2023/09/19 01:08:36;;;;;;;1.63;1.20;;;19.10;97.90;;;;;;6232449;23;20419;-85
2023/09/19 01:12:01;;;;;;;4.03;1.83;;;19.00;98.00;;;;;;6185009;23;20408;-83
2023/09/19 01:15:08;;;;;;;3.03;1.23;;;18.90;98.30;;;;;;6209504;23;20419;-84
2023/09/19 01:18:47;;;;;;;3.57;1.57;;;18.80;98.40;;;;;;6262781;22;20463;-84
2023/09/19 01:22:12;;;;;;;3.40;1.60;;;18.80;98.50;;;;;;6258067;23;20386;-86
2023/09/19 01:25:37;;;;;;;3.73;1.40;;;18.80;98.30;;;;;;6232442;23;20412;-87
2023/09/19 01:29:39;;;;;;;;;;;;;;;;;;;;;
2023/09/19 01:32:41;;;;;;;3.20;1.10;;;18.90;98.00;;;;;;6251655;23;20475;-86
2023/09/19 01:35:57;;;;;;;5.93;1.50;;;18.80;98.20;;;;;;6227007;23;20450;-85
2023/09/19 01:39:19;;;;;;;4.73;1.40;;;18.90;97.90;;;;;;6229923;23;20395;-86
2023/09/19 01:43:05;;;;;;;4.67;1.90;;;18.70;98.10;;;;;;6214869;22;20425;-86
2023/09/19 01:46:30;;;;;;;4.13;1.40;;;18.70;98.20;;;;;;6082538;23;20404;-86
2023/09/19 01:50:00;;;;;;;4.77;1.40;;;18.70;98.30;;;;;;6028790;23;20400;-89
2023/09/19 01:53:20;;;;;;;;;;;;;;;;;;;;;
2023/09/19 01:57:01;;;;;;;3.90;1.40;;;18.70;98.20;;;;;;6141627;23;20410;-85
2023/09/19 02:00:42;;;;;;;2.97;1.37;;;18.70;98.20;;;;;;6133570;23;20404;-83
2023/09/19 02:03:52;;;;;;;6.83;1.60;;;18.60;98.10;;;;;;5997549;23;20428;-85
2023/09/19 02:07:09;;;;;;;4.70;1.70;;;18.60;97.90;;;;;;6030925;23;20426;-85
2023/09/19 02:10:12;;;;;;;7.20;1.53;;;18.60;97.80;;;;;;5998288;23;20462;-85
2023/09/19 02:13:30;;;;;;;5.87;1.93;;;18.60;97.60;;;;;;6005038;23;20501;-84
2023/09/19 02:16:24;;;;;;;3.03;1.30;;;18.50;97.70;;;;;;6133688;23;20415;-85
2023/09/19 02:29:44;;;;;;;4.60;1.63;;;18.60;97.60;;;;;;6230130;23;20614;-82
2023/09/19 02:32:30;;;;;;;3.73;1.43;;;18.50;97.40;;;;;;6235133;23;20464;-84
2023/09/19 02:35:34;;;;;;;6.43;1.90;;;18.50;97.50;;;;;;6251606;22;20546;-86
2023/09/19 02:38:43;;;;;;;2.50;1.40;;;18.50;97.40;;;;;;6259049;22;20518;-84
2023/09/19 02:41:31;;;;;;;3.07;1.50;;;18.40;97.40;;;;;;6192422;22;20418;-87
2023/09/19 02:44:24;;;;;;;3.97;1.40;;;18.40;97.40;;;;;;6262063;22;20431;-86
2023/09/19 02:47:36;;;;;;;6.03;1.63;;;18.40;97.50;;;;;;6249545;22;20391;-86
2023/09/19 02:50:33;;;;;;;3.97;1.60;;;18.30;97.60;;;;;;6240137;22;20380;-84
2023/09/19 02:53:37;;;;;;;5.60;1.30;;;18.40;97.60;;;;;;6257603;22;20491;-86
2023/09/19 02:56:26;;;;;;;3.10;1.53;;;18.30;97.20;;;;;;6254205;22;21078;-82
2023/09/19 03:02:09;;;;;;;3.27;1.33;;;18.20;97.70;;;;;;6282875;22;20407;-84
2023/09/19 03:05:34;;;;;;;3.90;1.50;;;18.10;97.80;;;;;;6257434;22;20809;-82
2023/09/19 03:08:39;;;;;;;4.20;1.40;;;18.10;97.80;;;;;;6259299;22;20565;-82
2023/09/19 03:11:42;;;;;;;2.40;1.30;;;18.10;97.90;;;;;;6259554;22;20461;-86
2023/09/19 03:14:41;;;;;;;3.23;1.67;;;18.20;97.90;;;;;;6257951;22;20446;-84
2023/09/19 03:17:22;;;;;;;2.53;1.40;;;18.20;97.80;;;;;;6257431;22;20788;-86
2023/09/19 03:20:41;;;;;;;8.87;1.80;;;18.20;97.60;;;;;;6263558;22;20406;-84
2023/09/19 03:24:15;;;;;;;8.23;1.60;;;18.20;97.80;;;;;;6271587;22;20441;-81
2023/09/19 03:27:12;;;;;;;3.40;1.50;;;18.10;97.80;;;;;;6293595;22;20406;-84
2023/09/19 03:34:14;;;;;;;5.47;1.40;;;18.00;98.00;;;;;;6211862;22;20413;-85
2023/09/19 03:37:05;;;;;;;5.73;1.27;;;18.00;98.10;;;;;;6259486;22;20418;-89
2023/09/19 03:40:05;;;;;;;2.10;1.20;;;17.90;98.20;;;;;;6259245;22;20494;-87
2023/09/19 03:43:09;;;;;;;5.97;1.77;;;17.90;98.20;;;;;;6259085;22;20441;-85
2023/09/19 03:45:47;;;;;;;3.80;1.67;;;18.10;97.90;;;;;;6256283;22;20423;-85
2023/09/19 03:48:35;;;;;;;5.83;1.40;;;17.90;98.10;;;;;;6255678;22;20426;-85
2023/09/19 03:51:27;;;;;;;4.50;1.73;;;17.80;98.30;;;;;;6156877;23;20413;-86
2023/09/19 03:54:19;;;;;;;3.27;1.50;;;17.80;98.30;;;;;;6135971;23;21066;-87
2023/09/19 03:57:16;;;;;;;7.03;1.70;;;17.70;98.80;;;;;;6135257;23;20466;-86
2023/09/19 04:00:21;;;;;;;6.10;2.37;;;17.70;98.50;;;;;;6071601;23;20436;-87
2023/09/19 04:03:05;;;;;;;2.90;1.40;;;17.70;98.60;;;;;;6082668;23;20429;-86
2023/09/19 04:06:13;;;;;;;7.10;1.30;;;17.90;98.50;;;;;;6071056;23;20444;-87
2023/09/19 04:08:52;;;;;;;4.70;1.90;;;18.20;98.10;;;;;;6049196;23;20445;-86
2023/09/19 04:11:54;;;;;;;6.00;2.70;;;18.10;97.60;;;;;;6071884;23;20432;-86
2023/09/19 04:14:58;;;;;;;3.80;1.50;;;18.00;97.90;;;;;;6065948;23;20524;-85
2023/09/19 04:18:20;;;;;;;6.37;2.27;;;17.90;97.90;;;;;;6159824;23;20546;-86
2023/09/19 04:20:58;;;;;;;7.77;2.00;;;17.90;98.00;;;;;;6071573;23;20421;-87
2023/09/19 04:23:57;;;;;;;7.93;1.80;;;17.90;98.10;;;;;;6125923;23;20423;-85
2023/09/19 04:26:42;;;;;;;8.13;2.20;;;17.80;97.90;;;;;;6134140;23;20418;-86
2023/09/19 04:29:35;;;;;;;4.13;2.00;;;17.70;97.80;;;;;;6158581;23;20414;-87
2023/09/19 04:32:07;;;;;;;3.73;1.90;;;17.50;98.10;;;;;;6134517;23;20403;-85
2023/09/19 04:35:12;;;;;;;4.37;1.37;;;17.70;98.20;;;;;;6138231;23;20439;-85
2023/09/19 04:38:03;;;;;;;3.23;1.40;;;17.60;97.90;;;;;;6227033;23;20440;-87
2023/09/19 04:41:19;;;;;;;3.63;1.50;;;17.50;98.10;;;;;;6217725;23;20400;-86
2023/09/19 04:44:07;;;;;;;7.60;2.30;;;17.70;97.70;;;;;;6225546;22;20435;-87
2023/09/19 04:47:12;;;;;;;6.20;1.80;;;17.50;97.60;;;;;;6199436;23;20418;-86
2023/09/19 04:49:59;;;;;;;4.43;1.83;;;17.50;97.70;;;;;;6257904;23;20403;-86
2023/09/19 04:52:54;;;;;;;5.30;1.50;;;17.60;96.90;;;;;;6215007;23;20784;-87
2023/09/19 04:55:58;;;;;;;;;;;;;;;;;;;;;
2023/09/19 04:59:05;;;;;;;8.00;1.97;;;17.40;96.70;;;;;;6249626;23;20864;-84
2023/09/19 05:02:31;;;;;;;2.93;1.87;;;17.30;96.80;;;;;;6228018;23;20459;-83
2023/09/19 05:05:44;;;;;;;6.63;1.60;;;17.30;96.60;;;;;;6207587;23;20415;-84
2023/09/19 05:09:08;;;;;;;3.20;1.87;;;17.70;95.70;;;;;;6246438;23;20412;-87
2023/09/19 05:15:45;;;;;;;;;;;;;;;;;;;;;
2023/09/19 05:18:42;;;;;;;4.00;1.97;;;17.50;95.60;;;;;;6216524;23;20474;-85
2023/09/19 05:21:44;;;;;;;4.13;1.80;;;17.40;96.10;;;;;;6221411;23;20400;-87
2023/09/19 05:24:31;;;;;;;2.90;1.87;;;17.70;95.60;;;;;;6251413;22;20482;-85
2023/09/19 05:27:16;;;;;;;4.43;1.90;;;17.60;95.30;;;;;;6242212;23;20408;-86
2023/09/19 05:30:27;;;;;;;4.73;1.60;;;17.60;95.50;;;;;;6218678;23;20401;-85
2023/09/19 05:33:29;;;;;;;;;;;;;;;;;;;;;
2023/09/19 05:36:31;;;;;;;4.77;2.20;;;17.40;95.50;;;;;;6268763;22;20398;-86
2023/09/19 05:39:17;;;;;;;3.50;2.03;;;17.60;95.30;;;;;;6247272;22;20436;-88
2023/09/19 05:42:01;;;;;;;7.10;2.63;;;17.60;95.10;;;;;;6247176;22;20400;-84
2023/09/19 05:45:11;;;;;;;5.93;2.30;;;17.70;95.10;;;;;;6237755;23;20582;-83
2023/09/19 05:48:27;;;;;;;3.57;2.00;;;17.60;95.10;;;;;;6244116;22;20392;-86
2023/09/19 05:54:54;;;;;;;6.00;2.23;;;17.60;95.10;;;;;;6271814;22;20522;-86
2023/09/19 05:58:05;;;;;;;3.70;2.13;;;17.60;95.00;;;;;;6245185;22;20432;-84
2023/09/19 06:01:23;;;;;;;7.20;1.80;;;17.50;95.30;;;;;;6249330;22;20444;-87
2023/09/19 06:04:33;;;;;;;7.77;2.00;;;17.50;95.20;;;;;;6252601;22;20431;-84
2023/09/19 06:07:12;;;;;;;5.27;2.23;;;17.40;95.10;;;;;;6233058;23;20408;-86
2023/09/19 06:10:20;;;;;;;6.37;1.80;;;17.40;95.30;;;;;;6228188;23;20388;-85
2023/09/19 06:19:00;;;;;;;3.47;2.10;;;17.50;95.30;;;;;;6291449;22;20454;-85
2023/09/19 06:21:59;;;;;;;2.53;1.50;;;17.50;95.40;;;;;;6262386;22;20403;-83
2023/09/19 06:24:53;;;;;;;8.33;2.10;;;17.50;95.20;;;;;;6283703;22;20436;-86
2023/09/19 06:27:54;;;;;;;6.37;1.93;;;17.50;95.10;;;;;;6257415;22;20868;-84
2023/09/19 06:30:42;;;;;;;4.87;2.20;;;17.40;95.50;;;;;;6256650;22;20407;-84
2023/09/19 06:33:45;;;;;;;;;;;;;;;;;;;;;
2023/09/19 06:36:22;;;;;;;4.60;1.83;;;17.70;95.20;;;;;;6274246;22;20486;-83
2023/09/19 06:39:28;;;;;;;4.43;1.87;;;17.70;95.10;;;;;;6281832;22;20481;-85
2023/09/19 06:42:13;;;;;;;3.93;1.60;;;17.70;95.20;;;;;;6284465;22;20418;-85
2023/09/19 06:45:27;;;;;;;10.57;2.30;;;17.80;95.30;;;;;;6259961;22;20430;-86
2023/09/19 06:48:06;;;;;;;5.07;2.40;;;17.90;95.00;;;;;;6285451;22;20414;-86
2023/09/19 06:51:25;;;;;;;;;;;;;;;;;;;;;
2023/09/19 06:54:20;;;;;;;5.50;1.77;;;18.10;95.10;;;;;;6256154;22;20928;-86
2023/09/19 06:57:16;;;;;;;5.07;2.10;;;18.40;94.30;;;;;;6259283;22;20411;-87
2023/09/19 06:59:58;;;;;;;;;;;;;;;;;;;;;
2023/09/19 07:03:28;;;;;;;5.70;2.77;;;18.40;94.10;;;;;;6281392;22;20415;-87
2023/09/19 07:06:05;;;;;;;8.07;1.90;;;18.40;93.90;;;;;;6258333;22;20766;-86
2023/09/19 07:08:32;;;;;;;4.83;1.70;;;18.60;93.90;;;;;;6256619;22;20978;-85
2023/09/19 07:15:22;;;;;;;7.60;2.30;;;18.60;93.50;;;;;;6160605;23;20422;-86
2023/09/19 07:21:47;;;;;;;4.20;1.80;;;19.10;93.20;;;;;;6145940;23;20931;-85
2023/09/19 07:25:03;;;;;;;5.30;1.70;;;19.40;92.50;;;;;;6160299;23;20441;-85
2023/09/19 07:27:42;;;;;;;3.83;1.80;;;19.40;92.30;;;;;;6171454;23;20430;-86
2023/09/19 07:30:30;;;;;;;7.73;2.00;;;19.70;91.80;;;;;;6160214;23;20418;-85
2023/09/19 07:36:10;;;;;;;2.97;1.40;;;20.10;91.00;;;;;;6275498;22;20533;-87
2023/09/19 07:46:26;;;;;;;4.67;1.60;;;20.60;89.70;;;;;;6262029;23;20428;-84
2023/09/19 07:53:52;;;;;;;;;;;;;;;;;;;;;
2023/09/19 07:56:37;;;;;;;5.93;1.73;;;21.70;85.60;;;;;;6223578;23;20400;-86
2023/09/19 07:59:30;;;;;;;;;;;;;;;;;;;;;
2023/09/19 08:02:24;;;;;;;3.07;2.20;;;22.20;80.50;;;;;;6223934;23;20469;-88
2023/09/19 08:05:18;;;;;;;4.03;2.17;;;21.40;82.50;;;;;;6218313;23;20417;-85
2023/09/19 08:07:59;;;;;;;5.83;1.73;;;20.90;84.40;;;;;;6221530;23;20419;-84
2023/09/19 08:10:51;;;;;;;4.53;2.07;;;20.80;85.40;;;;;;6220682;23;20753;-85
2023/09/19 08:13:27;;;;;;;6.87;1.77;;;20.80;86.00;;;;;;6221913;23;20413;-85
2023/09/19 08:16:09;;;;;;;4.23;1.90;;;20.80;86.50;;;;;;6219501;23;20442;-85
2023/09/19 08:19:01;;;;;;;4.87;1.63;;;20.70;86.50;;;;;;6219289;23;21020;-85
2023/09/19 08:24:54;;;;;;;5.53;1.83;;;20.50;86.30;;;;;;6217487;23;20415;-85
2023/09/19 08:27:41;;;;;;;4.00;1.47;;;20.30;87.60;;;;;;6219037;23;20440;-84
2023/09/19 08:30:34;;;;;;;3.50;1.77;;;20.50;88.10;;;;;;6224858;23;20412;-85
2023/09/19 08:36:23;;;;;;;7.37;2.10;;;20.50;87.40;;;;;;6292055;22;20426;-86
2023/09/19 08:39:30;;;;;;;2.93;2.00;;;20.40;87.90;;;;;;6267851;22;20959;-85
2023/09/19 08:42:25;;;;;;;4.70;1.70;;;20.40;87.60;;;;;;6260763;22;20387;-86
2023/09/19 08:45:11;;;;;;;4.80;1.70;;;20.40;87.00;;;;;;6267021;22;20440;-86
2023/09/19 08:48:28;;;;;;;5.40;1.73;;;20.60;86.90;;;;;;6206052;23;20412;-85
2023/09/19 08:51:50;;;;;;;3.63;1.83;;;21.20;83.50;;;;;;6225087;23;20404;-84
2023/09/19 08:54:47;;;;;;;5.07;1.97;;;21.00;83.50;;;;;;6219902;23;20432;-81
2023/09/19 08:57:30;;;;;;;5.23;1.90;;;20.50;84.80;;;;;;6263169;22;20415;-83
2023/09/19 09:04:13;;;;;;;3.90;1.73;;;20.80;84.10;;;;;;6053403;23;20472;-84
2023/09/19 09:07:24;;;;;;;3.70;1.30;;;20.60;83.60;;;;;;6254202;23;20430;-83
2023/09/19 09:13:51;;;;;;;9.33;1.80;;;20.70;82.80;;;;;;6132071;23;20394;-84
2023/09/19 09:16:29;;;;;;;5.77;2.20;;;20.90;82.40;;;;;;6106384;23;20455;-86
2023/09/19 09:19:02;;;;;;;12.23;8.77;;;20.90;81.80;;;;;;6104093;23;20462;-87
2023/09/19 09:22:14;;;;;;;4.30;1.60;;;21.10;81.20;;;;;;6114611;23;20443;-84
2023/09/19 09:25:09;;;;;;;6.53;1.73;;;21.10;79.60;;;;;;6125965;23;20451;-83
2023/09/19 09:28:20;;;;;;;2.90;1.50;;;20.90;80.60;;;;;;6127647;23;20419;-82
2023/09/19 09:34:04;;;;;;;5.83;1.77;;;21.60;78.50;;;;;;6117031;23;20447;-84
2023/09/19 09:36:38;;;;;;;4.17;1.90;;;21.70;76.20;;;;;;6123485;23;20868;-84
2023/09/19 09:39:24;;;;;;;4.40;1.50;;;21.60;76.60;;;;;;6123535;23;20435;-83
2023/09/19 09:41:52;;;;;;;3.83;1.60;;;21.40;77.60;;;;;;6099761;23;20428;-82
2023/09/19 09:44:19;;;;;;;2.20;1.40;;;21.50;77.80;;;;;;6123978;23;20432;-85
2023/09/19 09:49:54;;;;;;;2.00;1.30;;;23.60;70.70;;;;;;6163022;23;20435;-85
2023/09/19 09:52:25;;;;;;;3.80;1.23;;;24.10;68.20;;;;;;6258278;23;20419;-87
2023/09/19 09:55:07;;;;;;;3.27;1.40;;;24.10;64.90;;;;;;6242978;23;20438;-85
2023/09/19 09:57:34;;;;;;;2.20;1.10;;;23.80;64.50;;;;;;6266538;22;20391;-85
2023/09/19 10:02:43;;;;;;;3.97;1.37;;;23.60;64.50;;;;;;6246119;23;20381;-84
2023/09/19 10:05:43;;;;;;;2.20;1.43;;;23.30;65.70;;;;;;6242813;22;20428;-84
2023/09/19 10:08:12;;;;;;;3.50;1.30;;;23.20;65.80;;;;;;6238387;23;20487;-83
2023/09/19 10:13:15;;;;;;;3.10;1.70;;;23.80;63.80;;;;;;6237169;23;20866;-82
2023/09/19 10:15:50;;;;;;;4.30;1.17;;;23.90;62.20;;;;;;6208359;23;20428;-84
2023/09/19 10:18:20;;;;;;;6.00;1.77;;;23.90;63.00;;;;;;6207175;23;20411;-84
2023/09/19 10:20:49;;;;;;;2.23;1.30;;;23.90;62.80;;;;;;6208710;23;20432;-83
2023/09/19 10:23:25;;;;;;;3.70;1.50;;;23.60;63.60;;;;;;6207888;23;20400;-82
2023/09/19 10:25:53;;;;;;;4.60;1.90;;;23.30;64.60;;;;;;6227254;22;20512;-83
2023/09/19 10:28:24;;;;;;;2.17;1.30;;;23.30;64.80;;;;;;6209703;23;20465;-82
2023/09/19 10:30:52;;;;;;;1.90;1.30;;;23.50;63.80;;;;;;6208784;23;20414;-85
2023/09/19 10:33:26;;;;;;;3.30;1.50;;;23.30;64.80;;;;;;6209870;23;20412;-83
2023/09/19 10:35:55;;;;;;;6.40;1.67;;;23.00;66.20;;;;;;6209814;23;21007;-84
2023/09/19 10:38:28;;;;;;;4.60;1.33;;;23.00;66.50;;;;;;6205354;23;20716;-83
2023/09/19 10:41:00;;;;;;;2.20;1.40;;;22.90;66.00;;;;;;6208823;23;20418;-83
2023/09/19 10:43:31;;;;;;;5.60;1.40;;;22.90;66.70;;;;;;6210404;23;20384;-82
2023/09/19 10:46:06;;;;;;;2.70;1.33;;;23.50;65.50;;;;;;6245479;23;20369;-83
2023/09/19 10:48:33;;;;;;;1.47;1.07;;;23.30;64.90;;;;;;6250202;23;20506;-84
2023/09/19 10:51:24;;;;;;;3.30;1.57;;;23.10;65.50;;;;;;6249341;23;20440;-84
2023/09/19 10:54:13;;;;;;;4.73;1.57;;;23.60;63.80;;;;;;6247416;22;20427;-83
2023/09/19 10:56:48;;;;;;;2.80;1.30;;;23.10;64.10;;;;;;6217143;23;20389;-82
2023/09/19 10:59:21;;;;;;;4.07;1.70;;;23.10;64.70;;;;;;6215949;23;20439;-82
2023/09/19 11:01:53;;;;;;;2.03;1.50;;;23.30;64.80;;;;;;6213221;23;20818;-84
2023/09/19 11:04:35;;;;;;;3.63;1.43;;;23.60;64.10;;;;;;6212754;23;20472;-84
2023/09/19 11:07:08;;;;;;;2.90;1.03;;;23.50;63.30;;;;;;6212770;23;20499;-81
2023/09/19 11:09:54;;;;;;;2.47;1.33;;;23.50;63.50;;;;;;6238877;23;20407;-82
2023/09/19 11:12:45;;;;;;;4.60;1.60;;;22.90;64.60;;;;;;6251753;23;20483;-83
2023/09/19 11:16:04;;;;;;;2.17;1.77;;;22.80;65.10;;;;;;6211377;23;20432;-83
2023/09/19 11:18:40;;;;;;;2.63;1.60;;;22.90;65.50;;;;;;6174974;23;20416;-82
2023/09/19 11:21:33;;;;;;;2.07;1.30;;;23.90;61.80;;;;;;6239495;23;20438;-82
2023/09/19 11:24:27;;;;;;;2.73;1.50;;;23.80;60.60;;;;;;6212411;23;20428;-82
2023/09/19 11:27:13;;;;;;;4.00;2.10;;;23.60;60.50;;;;;;6210505;23;20415;-82
2023/09/19 11:29:41;;;;;;;4.33;1.87;;;23.40;60.20;;;;;;6236563;23;20407;-84
2023/09/19 11:32:09;;;;;;;2.90;2.17;;;23.20;61.80;;;;;;6238734;23;20451;-82
2023/09/19 11:34:36;;;;;;;2.40;1.67;;;23.50;62.20;;;;;;6236724;22;20503;-82
2023/09/19 11:37:11;;;;;;;3.70;2.20;;;24.60;58.90;;;;;;6236392;23;20412;-83
2023/09/19 11:39:38;;;;;;;4.53;1.70;;;25.30;56.40;;;;;;6209956;23;20424;-84
2023/09/19 11:42:41;;;;;;;3.10;1.60;;;24.80;55.90;;;;;;6209743;23;20780;-85
2023/09/19 11:45:29;;;;;;;3.73;1.73;;;24.30;57.50;;;;;;6230712;22;20436;-83
2023/09/19 11:47:57;;;;;;;5.20;1.80;;;23.70;58.60;;;;;;6237582;23;20397;-83
2023/09/19 11:50:25;;;;;;;3.30;1.97;;;23.50;58.60;;;;;;6238404;23;20419;-81
2023/09/19 11:52:55;;;;;;;2.77;1.40;;;23.70;58.60;;;;;;6210685;23;20530;-82
2023/09/19 11:55:22;;;;;;;5.17;1.50;;;24.70;58.00;;;;;;6209875;23;20447;-83
2023/09/19 11:57:50;;;;;;;3.33;1.67;;;24.80;57.40;;;;;;6210662;23;20420;-83
2023/09/19 12:00:18;;;;;;;3.13;1.57;;;25.00;56.70;;;;;;6239440;23;20475;-83
2023/09/19 12:02:48;;;;;;;2.43;1.50;;;25.90;54.20;;;;;;6212431;23;20408;-83
2023/09/19 12:05:16;;;;;;;2.40;1.40;;;25.80;53.00;;;;;;6217677;23;20436;-81
2023/09/19 12:07:48;;;;;;;3.60;1.43;;;25.30;53.90;;;;;;6227221;23;20412;-83
2023/09/19 12:10:17;;;;;;;2.80;1.80;;;25.80;53.10;;;;;;6245725;23;20466;-83
2023/09/19 12:12:52;;;;;;;2.23;1.37;;;25.70;52.50;;;;;;6238087;23;20427;-82
2023/09/19 12:15:34;;;;;;;3.93;2.10;;;26.20;50.90;;;;;;6209282;23;20639;-81
2023/09/19 12:18:01;;;;;;;2.63;1.40;;;25.90;51.60;;;;;;6209986;23;20527;-81
2023/09/19 12:20:47;;;;;;;2.27;1.60;;;25.50;52.10;;;;;;6236487;23;20470;-82
2023/09/19 12:23:17;;;;;;;2.97;1.30;;;25.50;52.10;;;;;;6210395;23;20420;-82
2023/09/19 12:25:47;;;;;;;2.23;1.37;;;25.90;51.40;;;;;;6235462;22;20432;-80
2023/09/19 12:28:16;;;;;;;3.83;1.30;;;26.40;50.20;;;;;;6209831;23;20392;-81
2023/09/19 12:30:45;;;;;;;2.80;1.50;;;26.30;49.90;;;;;;6237606;23;20921;-80
2023/09/19 12:33:19;;;;;;;3.37;1.63;;;26.50;48.90;;;;;;6234122;23;20412;-83
2023/09/19 12:35:47;;;;;;;2.33;1.80;;;25.60;50.20;;;;;;6208316;23;20439;-81
2023/09/19 12:38:28;;;;;;;2.50;1.47;;;25.50;51.10;;;;;;6245362;23;20419;-83
2023/09/19 12:40:59;;;;;;;1.87;1.10;;;25.90;51.30;;;;;;6243597;23;20504;-82
2023/09/19 12:43:32;;;;;;;3.20;1.70;;;26.40;50.30;;;;;;6219726;22;20439;-84
2023/09/19 12:45:59;;;;;;;2.60;1.30;;;26.60;49.40;;;;;;6262084;22;20412;-82
2023/09/19 12:48:31;;;;;;;1.93;1.30;;;26.40;49.40;;;;;;6260299;23;20426;-83
2023/09/19 12:51:09;;;;;;;3.97;1.30;;;26.90;48.30;;;;;;6263136;22;20404;-84
2023/09/19 12:53:46;;;;;;;3.43;1.43;;;26.70;48.50;;;;;;6237543;22;20442;-81
2023/09/19 12:56:15;;;;;;;2.53;1.53;;;26.30;49.30;;;;;;6263396;22;20499;-84
2023/09/19 12:58:55;;;;;;;2.70;1.40;;;26.10;49.70;;;;;;6190895;23;20691;-82
2023/09/19 13:01:27;;;;;;;2.53;1.07;;;26.90;48.50;;;;;;6220517;23;20418;-81
2023/09/19 13:10:04;;;;;;;1.87;0.90;;;26.20;49.40;;;;;;6312930;22;20436;-84
2023/09/19 13:12:42;;;;;;;2.77;1.40;;;25.70;50.10;;;;;;6274060;22;20407;-83
2023/09/19 13:15:16;;;;;;;2.80;1.40;;;25.50;50.80;;;;;;6286871;22;20494;-84
2023/09/19 13:17:48;;;;;;;4.40;1.40;;;25.50;50.90;;;;;;6313740;22;20418;-82
2023/09/19 13:20:27;;;;;;;3.23;1.50;;;25.70;51.80;;;;;;6315851;22;20534;-83
2023/09/19 13:22:58;;;;;;;3.40;1.50;;;26.30;50.10;;;;;;6316032;22;20417;-85
2023/09/19 13:25:32;;;;;;;4.13;1.40;;;26.10;50.10;;;;;;6290584;22;20453;-83
2023/09/19 13:28:00;;;;;;;2.30;1.40;;;25.70;50.90;;;;;;6289596;22;20410;-82
2023/09/19 13:30:31;;;;;;;2.27;1.20;;;25.70;51.40;;;;;;6289134;22;20489;-85
2023/09/19 13:33:09;;;;;;;2.47;1.57;;;25.60;51.60;;;;;;6318040;22;20426;-84
2023/09/19 13:35:40;;;;;;;2.73;1.03;;;25.20;52.30;;;;;;6288123;22;20499;-80
2023/09/19 13:38:11;;;;;;;2.33;0.80;;;25.00;53.00;;;;;;6310208;22;20875;-84
2023/09/19 13:40:41;;;;;;;3.37;1.10;;;24.80;53.60;;;;;;6301471;22;20480;-83
2023/09/19 13:43:10;;;;;;;2.80;1.43;;;24.70;54.00;;;;;;6300562;22;20467;-83
2023/09/19 13:45:37;;;;;;;1.67;1.00;;;24.60;54.30;;;;;;6275958;22;20432;-82
2023/09/19 13:48:04;;;;;;;2.83;1.03;;;24.50;54.80;;;;;;6302688;22;20402;-82
2023/09/19 13:50:32;;;;;;;2.77;1.57;;;24.20;55.20;;;;;;6303395;22;20495;-82
2023/09/19 13:53:00;;;;;;;1.77;1.17;;;24.00;55.90;;;;;;6308236;22;20406;-82
2023/09/19 13:55:27;;;;;;;1.70;1.13;;;24.00;56.20;;;;;;6315456;22;20434;-83
2023/09/19 13:57:55;;;;;;;2.87;1.10;;;24.10;56.00;;;;;;6291143;22;20437;-83
2023/09/19 14:00:22;;;;;;;4.47;1.30;;;24.40;56.10;;;;;;6325714;22;20449;-85
2023/09/19 14:02:50;;;;;;;5.03;1.10;;;24.50;56.00;;;;;;6326082;22;20512;-84
2023/09/19 14:05:18;;;;;;;1.20;1.10;;;25.20;54.60;;;;;;6324639;22;20468;-84
2023/09/19 14:07:45;;;;;;;3.23;0.97;;;25.10;54.30;;;;;;6294744;22;20418;-81
2023/09/19 14:10:12;;;;;;;2.63;1.43;;;24.80;54.50;;;;;;6320454;22;20402;-82
2023/09/19 14:12:40;;;;;;;2.70;1.10;;;24.70;54.60;;;;;;6317514;22;20411;-84
2023/09/19 14:15:08;;;;;;;1.80;1.07;;;24.50;54.80;;;;;;6312275;22;20434;-83
2023/09/19 14:17:35;;;;;;;1.47;0.87;;;24.60;54.80;;;;;;6312288;22;20412;-82
2023/09/19 14:20:01;;;;;;;3.70;1.03;;;24.40;55.10;;;;;;6313248;22;20466;-84
2023/09/19 14:22:28;;;;;;;1.60;1.00;;;24.20;55.50;;;;;;6312690;22;20467;-82
2023/09/19 14:24:55;;;;;;;1.90;0.93;;;24.40;55.60;;;;;;6307037;22;20435;-82
2023/09/19 14:27:21;;;;;;;1.50;0.97;;;24.20;55.80;;;;;;6303555;22;20493;-84
2023/09/19 14:29:48;;;;;;;2.50;0.80;;;23.90;56.50;;;;;;6302600;22;20399;-81
2023/09/19 14:32:15;;;;;;;2.87;1.17;;;23.80;56.70;;;;;;6299274;22;20394;-82
2023/09/19 14:34:44;;;;;;;4.00;1.80;;;23.70;57.10;;;;;;6273050;22;20430;-82
2023/09/19 14:37:13;;;;;;;2.33;1.00;;;23.60;57.40;;;;;;6301591;22;20397;-82
2023/09/19 14:39:44;;;;;;;1.83;1.13;;;23.70;57.70;;;;;;6300637;22;20434;-83
2023/09/19 14:42:11;;;;;;;1.40;0.87;;;23.90;57.40;;;;;;6297663;22;20387;-82
2023/09/19 14:44:37;;;;;;;3.97;2.00;;;23.60;57.70;;;;;;6269880;22;20442;-84
2023/09/19 14:47:05;;;;;;;1.80;1.33;;;23.50;58.00;;;;;;6297837;22;20429;-84
2023/09/19 14:49:38;;;;;;;2.37;1.33;;;23.50;58.30;;;;;;6297524;22;20787;-81
2023/09/19 14:52:07;;;;;;;0.80;0.80;;;23.40;58.60;;;;;;6297098;22;20884;-82
2023/09/19 14:54:35;;;;;;;2.40;0.93;;;23.40;59.00;;;;;;6271415;22;20434;-83
2023/09/19 14:57:04;;;;;;;1.70;1.10;;;23.40;59.10;;;;;;6271282;22;20399;-81
2023/09/19 14:59:32;;;;;;;1.80;1.23;;;23.50;59.10;;;;;;6271164;22;20456;-80
2023/09/19 15:01:58;;;;;;;1.23;0.80;;;23.60;58.80;;;;;;6270473;22;20429;-83
2023/09/19 15:04:27;;;;;;;1.43;1.03;;;24.00;58.00;;;;;;6271747;22;21290;-83
2023/09/19 15:06:54;;;;;;;2.40;0.80;;;23.70;58.30;;;;;;6298746;22;21170;-83
2023/09/19 15:09:26;;;;;;;2.10;1.13;;;23.60;58.70;;;;;;6305692;22;20429;-81
2023/09/19 15:11:53;;;;;;;3.17;1.50;;;23.50;58.70;;;;;;6300077;22;20414;-83
2023/09/19 15:14:22;;;;;;;1.57;0.87;;;23.80;58.80;;;;;;6271142;22;20422;-81
2023/09/19 15:16:49;;;;;;;3.23;0.90;;;23.80;58.80;;;;;;6299585;22;20442;-85
2023/09/19 15:19:16;;;;;;;2.07;0.97;;;23.60;58.30;;;;;;6298502;22;20410;-84
2023/09/19 15:21:44;;;;;;;1.37;0.80;;;23.60;58.70;;;;;;6283114;22;20459;-82
2023/09/19 15:24:10;;;;;;;1.97;0.90;;;23.50;58.90;;;;;;6268807;22;20429;-84
2023/09/19 15:26:42;;;;;;;1.93;0.87;;;23.40;58.90;;;;;;6271160;22;20489;-82
2023/09/19 15:29:10;;;;;;;3.40;1.10;;;23.40;58.40;;;;;;6286376;22;20379;-85
2023/09/19 15:31:36;;;;;;;5.07;1.33;;;23.10;58.70;;;;;;6267441;22;20394;-81
2023/09/19 15:34:05;;;;;;;4.70;1.27;;;23.00;58.90;;;;;;6272329;22;20863;-82
2023/09/19 15:36:32;;;;;;;1.73;0.93;;;23.00;58.80;;;;;;6288627;22;20481;-84
2023/09/19 15:39:00;;;;;;;2.27;0.80;;;22.80;59.00;;;;;;6306621;22;20407;-82
2023/09/19 15:41:35;;;;;;;1.67;0.90;;;23.00;59.20;;;;;;6273110;22;20787;-83
2023/09/19 15:44:03;;;;;;;0.83;0.83;;;22.90;59.10;;;;;;6272940;22;20440;-83
2023/09/19 15:46:34;;;;;;;2.10;0.90;;;22.80;59.40;;;;;;6276780;22;20406;-82
2023/09/19 15:49:02;;;;;;;2.23;0.90;;;22.90;59.60;;;;;;6279725;22;20399;-80
2023/09/19 15:51:29;;;;;;;1.53;0.73;;;22.90;59.50;;;;;;6307817;22;20396;-82
2023/09/19 15:53:57;;;;;;;1.67;0.60;;;23.00;59.70;;;;;;6284429;22;20478;-84
2023/09/19 15:56:24;;;;;;;1.03;0.70;;;22.90;59.50;;;;;;6311436;22;20409;-83
2023/09/19 15:58:53;;;;;;;2.00;0.80;;;22.90;59.70;;;;;;6299090;22;20464;-81
2023/09/19 16:01:20;;;;;;;1.00;0.90;;;22.80;59.70;;;;;;6304497;22;20430;-83
2023/09/19 16:03:49;;;;;;;1.90;0.90;;;22.70;60.10;;;;;;6276811;22;20402;-80
2023/09/19 16:06:18;;;;;;;1.53;0.80;;;22.80;60.40;;;;;;6269948;22;20427;-83
2023/09/19 16:08:47;;;;;;;1.67;0.70;;;22.60;60.80;;;;;;6298866;22;20414;-83
2023/09/19 16:11:15;;;;;;;1.83;0.90;;;22.50;61.60;;;;;;6299164;22;20414;-84
2023/09/19 16:13:42;;;;;;;1.73;1.00;;;22.70;61.60;;;;;;6271580;22;20434;-85
2023/09/19 16:16:12;;;;;;;1.30;0.80;;;23.00;60.90;;;;;;6303860;22;20887;-83
2023/09/19 16:18:40;;;;;;;3.13;1.10;;;23.00;60.80;;;;;;6300016;22;20444;-79